sensor_id;sensor_type;location;lat;lon;timestamp;P1;durP1;ratioP1;P2;durP2;ratioP2
15476;SDS011;7840;42.702;23.296;2022-11-24T00:26:33;11.93;;;9.03;;
15476;SDS011;7840;42.702;23.296;2022-11-24T00:29:03;13.07;;;9.83;;
15476;SDS011;7840;42.702;23.296;2022-11-24T00:31:35;12.70;;;9.73;;
15476;SDS011;7840;42.702;23.296;2022-11-24T00:34:06;15.63;;;9.20;;
15476;SDS011;7840;42.702;23.296;2022-11-24T00:36:49;14.40;;;10.03;;
15476;SDS011;7840;42.702;23.296;2022-11-24T00:39:19;19.37;;;10.10;;
15476;SDS011;7840;42.702;23.296;2022-11-24T00:41:46;16.07;;;9.03;;
15476;SDS011;7840;42.702;23.296;2022-11-24T00:44:14;13.13;;;9.03;;
15476;SDS011;7840;42.702;23.296;2022-11-24T00:46:41;15.83;;;9.40;;
15476;SDS011;7840;42.702;23.296;2022-11-24T00:49:10;18.90;;;11.30;;
15476;SDS011;7840;42.702;23.296;2022-11-24T00:51:37;16.67;;;9.20;;
15476;SDS011;7840;42.702;23.296;2022-11-24T02:57:27;22.30;;;16.13;;
15476;SDS011;7840;42.702;23.296;2022-11-24T03:00:02;23.10;;;17.03;;
15476;SDS011;7840;42.702;23.296;2022-11-24T03:02:33;21.23;;;16.37;;
15476;SDS011;7840;42.702;23.296;2022-11-24T03:05:00;19.90;;;15.43;;
15476;SDS011;7840;42.702;23.296;2022-11-24T03:07:28;20.70;;;15.60;;
15476;SDS011;7840;42.702;23.296;2022-11-24T03:09:57;23.03;;;16.17;;
15476;SDS011;7840;42.702;23.296;2022-11-24T03:12:24;25.80;;;16.70;;
15476;SDS011;7840;42.702;23.296;2022-11-24T03:15:05;22.03;;;16.50;;
15476;SDS011;7840;42.702;23.296;2022-11-24T03:17:33;22.83;;;16.77;;
15476;SDS011;7840;42.702;23.296;2022-11-24T03:20:01;22.17;;;16.10;;
15476;SDS011;7840;42.702;23.296;2022-11-24T03:22:29;24.93;;;16.67;;
15476;SDS011;7840;42.702;23.296;2022-11-24T03:57:06;14.57;;;10.53;;
15476;SDS011;7840;42.702;23.296;2022-11-24T03:59:34;19.17;;;12.23;;
15476;SDS011;7840;42.702;23.296;2022-11-24T04:02:01;17.93;;;10.87;;
15476;SDS011;7840;42.702;23.296;2022-11-24T04:04:29;19.03;;;13.03;;
15476;SDS011;7840;42.702;23.296;2022-11-24T04:06:56;17.60;;;13.67;;
15476;SDS011;7840;42.702;23.296;2022-11-24T04:09:24;18.30;;;13.63;;
15476;SDS011;7840;42.702;23.296;2022-11-24T04:11:53;22.03;;;14.23;;
15476;SDS011;7840;42.702;23.296;2022-11-24T04:14:38;23.07;;;14.03;;
15476;SDS011;7840;42.702;23.296;2022-11-24T04:17:06;24.70;;;14.30;;
15476;SDS011;7840;42.702;23.296;2022-11-24T04:19:35;22.13;;;14.90;;
15476;SDS011;7840;42.702;23.296;2022-11-24T05:23:10;19.37;;;14.43;;
15476;SDS011;7840;42.702;23.296;2022-11-24T05:25:37;23.57;;;13.67;;
15476;SDS011;7840;42.702;23.296;2022-11-24T05:28:06;17.73;;;13.20;;
15476;SDS011;7840;42.702;23.296;2022-11-24T05:30:35;18.43;;;14.80;;
15476;SDS011;7840;42.702;23.296;2022-11-24T05:33:04;18.13;;;15.33;;
15476;SDS011;7840;42.702;23.296;2022-11-24T05:35:34;25.57;;;14.53;;
15476;SDS011;7840;42.702;23.296;2022-11-24T05:38:02;21.17;;;13.73;;
15476;SDS011;7840;42.702;23.296;2022-11-24T05:40:30;18.60;;;12.30;;
15476;SDS011;7840;42.702;23.296;2022-11-24T05:42:58;15.93;;;13.07;;
15476;SDS011;7840;42.702;23.296;2022-11-24T05:45:26;22.77;;;13.40;;
15476;SDS011;7840;42.702;23.296;2022-11-24T05:47:53;19.00;;;13.30;;
15476;SDS011;7840;42.702;23.296;2022-11-24T06:03:32;22.53;;;14.53;;
15476;SDS011;7840;42.702;23.296;2022-11-24T06:06:00;22.13;;;14.80;;
15476;SDS011;7840;42.702;23.296;2022-11-24T06:08:30;18.17;;;15.30;;
15476;SDS011;7840;42.702;23.296;2022-11-24T06:10:59;25.33;;;15.47;;
15476;SDS011;7840;42.702;23.296;2022-11-24T06:13:41;23.13;;;15.17;;
15476;SDS011;7840;42.702;23.296;2022-11-24T06:16:11;23.50;;;16.10;;
15476;SDS011;7840;42.702;23.296;2022-11-24T06:18:39;22.60;;;15.30;;
15476;SDS011;7840;42.702;23.296;2022-11-24T06:47:47;32.70;;;22.47;;
15476;SDS011;7840;42.702;23.296;2022-11-24T06:50:18;31.77;;;22.03;;
15476;SDS011;7840;42.702;23.296;2022-11-24T07:39:27;14.63;;;12.47;;
15476;SDS011;7840;42.702;23.296;2022-11-24T07:41:54;12.47;;;11.20;;
15476;SDS011;7840;42.702;23.296;2022-11-24T07:44:24;14.80;;;12.20;;
15476;SDS011;7840;42.702;23.296;2022-11-24T07:46:52;13.60;;;12.20;;
15476;SDS011;7840;42.702;23.296;2022-11-24T07:49:21;13.03;;;11.73;;
15476;SDS011;7840;42.702;23.296;2022-11-24T07:52:03;14.30;;;12.67;;
15476;SDS011;7840;42.702;23.296;2022-11-24T07:54:47;16.13;;;12.23;;
15476;SDS011;7840;42.702;23.296;2022-11-24T07:57:20;13.93;;;12.43;;
15476;SDS011;7840;42.702;23.296;2022-11-24T07:59:48;13.43;;;12.10;;
15476;SDS011;7840;42.702;23.296;2022-11-24T08:02:15;13.13;;;11.60;;
15476;SDS011;7840;42.702;23.296;2022-11-24T08:04:44;12.77;;;10.97;;
15476;SDS011;7840;42.702;23.296;2022-11-24T08:07:12;14.57;;;11.37;;
15476;SDS011;7840;42.702;23.296;2022-11-24T08:09:45;11.37;;;10.27;;
15476;SDS011;7840;42.702;23.296;2022-11-24T08:12:16;13.87;;;11.13;;
15476;SDS011;7840;42.702;23.296;2022-11-24T08:14:46;10.63;;;9.53;;
15476;SDS011;7840;42.702;23.296;2022-11-24T08:17:14;11.50;;;10.30;;
15476;SDS011;7840;42.702;23.296;2022-11-24T08:20:07;10.73;;;9.00;;
15476;SDS011;7840;42.702;23.296;2022-11-24T08:22:35;11.83;;;9.47;;
15476;SDS011;7840;42.702;23.296;2022-11-24T08:28:10;9.77;;;8.70;;
15476;SDS011;7840;42.702;23.296;2022-11-24T08:30:38;9.83;;;8.47;;
15476;SDS011;7840;42.702;23.296;2022-11-24T08:33:06;10.87;;;7.80;;
15476;SDS011;7840;42.702;23.296;2022-11-24T08:35:35;9.20;;;8.30;;
15476;SDS011;7840;42.702;23.296;2022-11-24T08:38:12;7.83;;;6.97;;
15476;SDS011;7840;42.702;23.296;2022-11-24T08:40:41;8.30;;;7.20;;
15476;SDS011;7840;42.702;23.296;2022-11-24T08:43:09;8.27;;;6.53;;
15476;SDS011;7840;42.702;23.296;2022-11-24T08:45:37;8.40;;;7.27;;
15476;SDS011;7840;42.702;23.296;2022-11-24T08:48:05;8.17;;;6.40;;
15476;SDS011;7840;42.702;23.296;2022-11-24T08:50:33;6.97;;;5.63;;
15476;SDS011;7840;42.702;23.296;2022-11-24T08:53:02;5.37;;;4.63;;
15476;SDS011;7840;42.702;23.296;2022-11-24T08:55:31;4.10;;;3.70;;
15476;SDS011;7840;42.702;23.296;2022-11-24T08:58:01;3.57;;;3.27;;
15476;SDS011;7840;42.702;23.296;2022-11-24T09:00:35;3.50;;;3.20;;
15476;SDS011;7840;42.702;23.296;2022-11-24T09:03:10;3.07;;;2.87;;
15476;SDS011;7840;42.702;23.296;2022-11-24T09:05:46;4.33;;;3.10;;
15476;SDS011;7840;42.702;23.296;2022-11-24T09:08:28;3.40;;;3.10;;
15476;SDS011;7840;42.702;23.296;2022-11-24T09:10:57;3.67;;;3.33;;
15476;SDS011;7840;42.702;23.296;2022-11-24T09:13:26;2.70;;;2.47;;
15476;SDS011;7840;42.702;23.296;2022-11-24T09:15:55;2.60;;;2.40;;
15476;SDS011;7840;42.702;23.296;2022-11-24T09:18:29;2.80;;;2.17;;
15476;SDS011;7840;42.702;23.296;2022-11-24T09:21:08;2.73;;;2.07;;
15476;SDS011;7840;42.702;23.296;2022-11-24T09:23:56;3.53;;;2.57;;
15476;SDS011;7840;42.702;23.296;2022-11-24T09:27:00;2.40;;;2.20;;
15476;SDS011;7840;42.702;23.296;2022-11-24T09:29:27;2.60;;;2.33;;
15476;SDS011;7840;42.702;23.296;2022-11-24T09:31:56;2.70;;;2.20;;
15476;SDS011;7840;42.702;23.296;2022-11-24T09:34:24;3.30;;;2.73;;
15476;SDS011;7840;42.702;23.296;2022-11-24T09:36:57;2.27;;;2.07;;
15476;SDS011;7840;42.702;23.296;2022-11-24T09:39:25;2.00;;;1.87;;
15476;SDS011;7840;42.702;23.296;2022-11-24T09:45:01;1.97;;;1.63;;
15476;SDS011;7840;42.702;23.296;2022-11-24T09:47:45;21.60;;;10.83;;
15476;SDS011;7840;42.702;23.296;2022-11-24T09:50:29;2.70;;;2.50;;
15476;SDS011;7840;42.702;23.296;2022-11-24T09:53:01;2.63;;;2.23;;
15476;SDS011;7840;42.702;23.296;2022-11-24T09:55:38;2.60;;;2.40;;
15476;SDS011;7840;42.702;23.296;2022-11-24T09:58:13;2.83;;;2.43;;
15476;SDS011;7840;42.702;23.296;2022-11-24T10:01:03;2.20;;;1.80;;
15476;SDS011;7840;42.702;23.296;2022-11-24T10:03:34;4.17;;;2.33;;
15476;SDS011;7840;42.702;23.296;2022-11-24T10:06:11;7.60;;;2.90;;
15476;SDS011;7840;42.702;23.296;2022-11-24T10:09:10;2.60;;;2.40;;
15476;SDS011;7840;42.702;23.296;2022-11-24T10:11:48;4.23;;;2.50;;
15476;SDS011;7840;42.702;23.296;2022-11-24T10:17:47;3.40;;;2.63;;
15476;SDS011;7840;42.702;23.296;2022-11-24T10:20:32;5.63;;;3.07;;
15476;SDS011;7840;42.702;23.296;2022-11-24T10:23:16;4.00;;;3.60;;
15476;SDS011;7840;42.702;23.296;2022-11-24T10:26:03;3.93;;;2.77;;
15476;SDS011;7840;42.702;23.296;2022-11-24T10:28:52;4.70;;;3.30;;
15476;SDS011;7840;42.702;23.296;2022-11-24T10:31:22;3.90;;;3.33;;
15476;SDS011;7840;42.702;23.296;2022-11-24T10:34:00;4.67;;;3.30;;
15476;SDS011;7840;42.702;23.296;2022-11-24T10:36:38;4.23;;;3.03;;
15476;SDS011;7840;42.702;23.296;2022-11-24T10:39:16;3.37;;;3.00;;
15476;SDS011;7840;42.702;23.296;2022-11-24T10:41:49;3.30;;;3.00;;
15476;SDS011;7840;42.702;23.296;2022-11-24T10:44:23;5.20;;;3.20;;
15476;SDS011;7840;42.702;23.296;2022-11-24T10:46:53;3.47;;;3.17;;
15476;SDS011;7840;42.702;23.296;2022-11-24T10:49:22;2.93;;;2.73;;
15476;SDS011;7840;42.702;23.296;2022-11-24T10:51:56;5.90;;;3.67;;
15476;SDS011;7840;42.702;23.296;2022-11-24T10:54:33;3.90;;;3.50;;
15476;SDS011;7840;42.702;23.296;2022-11-24T10:57:23;4.83;;;3.13;;
15476;SDS011;7840;42.702;23.296;2022-11-24T10:59:57;3.73;;;3.43;;
15476;SDS011;7840;42.702;23.296;2022-11-24T11:02:33;3.53;;;3.20;;
15476;SDS011;7840;42.702;23.296;2022-11-24T11:05:36;2.97;;;2.70;;
15476;SDS011;7840;42.702;23.296;2022-11-24T11:11:12;3.80;;;3.50;;
15476;SDS011;7840;42.702;23.296;2022-11-24T11:13:48;4.87;;;3.23;;
15476;SDS011;7840;42.702;23.296;2022-11-24T11:16:23;5.40;;;3.90;;
15476;SDS011;7840;42.702;23.296;2022-11-24T11:18:55;4.00;;;3.40;;
15476;SDS011;7840;42.702;23.296;2022-11-24T11:21:36;3.97;;;3.57;;
15476;SDS011;7840;42.702;23.296;2022-11-24T11:24:11;4.30;;;3.90;;
15476;SDS011;7840;42.702;23.296;2022-11-24T11:26:42;5.63;;;4.37;;
15476;SDS011;7840;42.702;23.296;2022-11-24T11:29:14;4.30;;;3.70;;
15476;SDS011;7840;42.702;23.296;2022-11-24T11:31:58;4.70;;;4.30;;
15476;SDS011;7840;42.702;23.296;2022-11-24T11:34:29;4.17;;;3.77;;
15476;SDS011;7840;42.702;23.296;2022-11-24T11:37:04;5.70;;;4.30;;
15476;SDS011;7840;42.702;23.296;2022-11-24T11:39:33;4.97;;;4.07;;
15476;SDS011;7840;42.702;23.296;2022-11-24T11:42:06;4.90;;;4.40;;
15476;SDS011;7840;42.702;23.296;2022-11-24T11:44:50;5.00;;;4.50;;
15476;SDS011;7840;42.702;23.296;2022-11-24T11:47:26;5.40;;;4.27;;
15476;SDS011;7840;42.702;23.296;2022-11-24T11:49:59;6.80;;;4.30;;
15476;SDS011;7840;42.702;23.296;2022-11-24T11:52:49;5.17;;;4.33;;
15476;SDS011;7840;42.702;23.296;2022-11-24T11:55:37;4.47;;;4.07;;
15476;SDS011;7840;42.702;23.296;2022-11-24T11:58:21;4.20;;;3.47;;
15476;SDS011;7840;42.702;23.296;2022-11-24T12:01:08;4.93;;;4.50;;
15476;SDS011;7840;42.702;23.296;2022-11-24T12:04:10;4.10;;;3.53;;
15476;SDS011;7840;42.702;23.296;2022-11-24T12:07:05;4.03;;;3.63;;
15476;SDS011;7840;42.702;23.296;2022-11-24T12:10:02;3.90;;;3.50;;
15476;SDS011;7840;42.702;23.296;2022-11-24T12:15:43;3.83;;;3.10;;
15476;SDS011;7840;42.702;23.296;2022-11-24T12:18:18;3.50;;;3.17;;
15476;SDS011;7840;42.702;23.296;2022-11-24T12:20:59;2.80;;;2.60;;
15476;SDS011;7840;42.702;23.296;2022-11-24T12:23:38;3.63;;;3.13;;
15476;SDS011;7840;42.702;23.296;2022-11-24T12:29:11;4.37;;;3.20;;
15476;SDS011;7840;42.702;23.296;2022-11-24T12:31:57;3.30;;;3.00;;
15476;SDS011;7840;42.702;23.296;2022-11-24T12:34:34;3.30;;;3.00;;
15476;SDS011;7840;42.702;23.296;2022-11-24T12:37:35;4.83;;;3.60;;
15476;SDS011;7840;42.702;23.296;2022-11-24T12:40:00;3.93;;;3.53;;
15476;SDS011;7840;42.702;23.296;2022-11-24T12:42:49;3.10;;;2.80;;
15476;SDS011;7840;42.702;23.296;2022-11-24T12:45:28;3.97;;;3.43;;
15476;SDS011;7840;42.702;23.296;2022-11-24T12:48:19;3.90;;;3.60;;
15476;SDS011;7840;42.702;23.296;2022-11-24T12:51:09;3.80;;;3.50;;
15476;SDS011;7840;42.702;23.296;2022-11-24T12:53:42;3.97;;;3.60;;
15476;SDS011;7840;42.702;23.296;2022-11-24T12:56:30;3.93;;;3.53;;
15476;SDS011;7840;42.702;23.296;2022-11-24T12:59:11;4.13;;;3.73;;
15476;SDS011;7840;42.702;23.296;2022-11-24T13:01:51;3.73;;;3.43;;
15476;SDS011;7840;42.702;23.296;2022-11-24T13:04:29;4.30;;;4.00;;
15476;SDS011;7840;42.702;23.296;2022-11-24T13:07:03;4.97;;;3.73;;
15476;SDS011;7840;42.702;23.296;2022-11-24T13:12:52;4.17;;;3.87;;
15476;SDS011;7840;42.702;23.296;2022-11-24T13:15:22;3.80;;;3.50;;
15476;SDS011;7840;42.702;23.296;2022-11-24T13:17:50;3.77;;;2.80;;
15476;SDS011;7840;42.702;23.296;2022-11-24T13:20:33;3.37;;;2.87;;
15476;SDS011;7840;42.702;23.296;2022-11-24T13:23:19;3.73;;;3.33;;
15476;SDS011;7840;42.702;23.296;2022-11-24T13:28:58;4.27;;;3.03;;
15476;SDS011;7840;42.702;23.296;2022-11-24T13:31:30;3.83;;;3.43;;
15476;SDS011;7840;42.702;23.296;2022-11-24T13:37:05;3.03;;;2.73;;
15476;SDS011;7840;42.702;23.296;2022-11-24T13:39:48;3.03;;;2.70;;
15476;SDS011;7840;42.702;23.296;2022-11-24T13:42:20;2.70;;;2.50;;
15476;SDS011;7840;42.702;23.296;2022-11-24T13:44:54;3.63;;;2.60;;
15476;SDS011;7840;42.702;23.296;2022-11-24T13:47:32;2.60;;;2.40;;
15476;SDS011;7840;42.702;23.296;2022-11-24T13:53:08;3.67;;;3.37;;
15476;SDS011;7840;42.702;23.296;2022-11-24T13:55:51;3.70;;;3.30;;
15476;SDS011;7840;42.702;23.296;2022-11-24T13:58:25;6.53;;;3.67;;
15476;SDS011;7840;42.702;23.296;2022-11-24T14:01:00;5.53;;;3.33;;
15476;SDS011;7840;42.702;23.296;2022-11-24T14:03:34;3.00;;;2.70;;
15476;SDS011;7840;42.702;23.296;2022-11-24T14:06:19;3.20;;;2.80;;
15476;SDS011;7840;42.702;23.296;2022-11-24T14:09:11;3.03;;;2.77;;
15476;SDS011;7840;42.702;23.296;2022-11-24T14:11:56;5.80;;;2.80;;
15476;SDS011;7840;42.702;23.296;2022-11-24T14:14:26;7.33;;;2.90;;
15476;SDS011;7840;42.702;23.296;2022-11-24T14:17:09;3.13;;;2.83;;
15476;SDS011;7840;42.702;23.296;2022-11-24T14:19:44;3.87;;;3.20;;
15476;SDS011;7840;42.702;23.296;2022-11-24T14:22:16;3.20;;;2.90;;
15476;SDS011;7840;42.702;23.296;2022-11-24T14:24:50;3.57;;;3.00;;
15476;SDS011;7840;42.702;23.296;2022-11-24T14:27:22;6.00;;;4.30;;
15476;SDS011;7840;42.702;23.296;2022-11-24T14:29:55;5.80;;;4.23;;
15476;SDS011;7840;42.702;23.296;2022-11-24T14:32:24;4.97;;;4.40;;
15476;SDS011;7840;42.702;23.296;2022-11-24T14:34:54;5.67;;;4.17;;
15476;SDS011;7840;42.702;23.296;2022-11-24T14:40:04;4.40;;;4.00;;
15476;SDS011;7840;42.702;23.296;2022-11-24T14:42:59;6.87;;;3.60;;
15476;SDS011;7840;42.702;23.296;2022-11-24T14:45:27;3.43;;;3.10;;
15476;SDS011;7840;42.702;23.296;2022-11-24T14:47:55;5.23;;;3.47;;
15476;SDS011;7840;42.702;23.296;2022-11-24T14:50:24;3.93;;;2.87;;
15476;SDS011;7840;42.702;23.296;2022-11-24T14:52:52;3.17;;;2.40;;
15476;SDS011;7840;42.702;23.296;2022-11-24T14:55:23;2.70;;;2.50;;
15476;SDS011;7840;42.702;23.296;2022-11-24T14:57:56;3.80;;;3.10;;
15476;SDS011;7840;42.702;23.296;2022-11-24T15:00:25;3.70;;;2.90;;
15476;SDS011;7840;42.702;23.296;2022-11-24T15:02:55;4.07;;;2.90;;
15476;SDS011;7840;42.702;23.296;2022-11-24T15:05:51;3.80;;;3.27;;
15476;SDS011;7840;42.702;23.296;2022-11-24T15:08:20;3.40;;;3.10;;
15476;SDS011;7840;42.702;23.296;2022-11-24T15:10:53;3.77;;;3.43;;
15476;SDS011;7840;42.702;23.296;2022-11-24T15:13:26;3.70;;;3.30;;
15476;SDS011;7840;42.702;23.296;2022-11-24T15:15:58;4.73;;;3.27;;
15476;SDS011;7840;42.702;23.296;2022-11-24T15:18:30;4.30;;;3.20;;
15476;SDS011;7840;42.702;23.296;2022-11-24T15:21:09;3.13;;;2.83;;
15476;SDS011;7840;42.702;23.296;2022-11-24T15:23:38;5.33;;;4.00;;
15476;SDS011;7840;42.702;23.296;2022-11-24T15:26:22;4.20;;;3.37;;
15476;SDS011;7840;42.702;23.296;2022-11-24T15:28:56;3.90;;;3.50;;
15476;SDS011;7840;42.702;23.296;2022-11-24T15:31:24;4.83;;;3.93;;
15476;SDS011;7840;42.702;23.296;2022-11-24T15:33:51;5.27;;;4.77;;
15476;SDS011;7840;42.702;23.296;2022-11-24T15:36:21;6.90;;;6.17;;
15476;SDS011;7840;42.702;23.296;2022-11-24T15:38:48;5.97;;;5.20;;
15476;SDS011;7840;42.702;23.296;2022-11-24T15:41:17;6.57;;;4.53;;
15476;SDS011;7840;42.702;23.296;2022-11-24T15:43:46;6.47;;;5.40;;
15476;SDS011;7840;42.702;23.296;2022-11-24T15:46:18;4.27;;;3.80;;
15476;SDS011;7840;42.702;23.296;2022-11-24T15:48:49;4.17;;;3.60;;
15476;SDS011;7840;42.702;23.296;2022-11-24T15:51:21;5.63;;;4.23;;
15476;SDS011;7840;42.702;23.296;2022-11-24T15:53:52;4.03;;;3.63;;
15476;SDS011;7840;42.702;23.296;2022-11-24T15:56:23;4.57;;;4.10;;
15476;SDS011;7840;42.702;23.296;2022-11-24T15:58:58;4.97;;;4.53;;
15476;SDS011;7840;42.702;23.296;2022-11-24T16:01:28;4.90;;;4.47;;
15476;SDS011;7840;42.702;23.296;2022-11-24T16:03:57;4.73;;;4.20;;
15476;SDS011;7840;42.702;23.296;2022-11-24T16:06:27;5.70;;;4.90;;
15476;SDS011;7840;42.702;23.296;2022-11-24T16:08:55;6.90;;;4.50;;
15476;SDS011;7840;42.702;23.296;2022-11-24T16:11:25;5.53;;;4.10;;
15476;SDS011;7840;42.702;23.296;2022-11-24T16:13:52;4.37;;;3.97;;
15476;SDS011;7840;42.702;23.296;2022-11-24T16:16:21;4.80;;;4.30;;
15476;SDS011;7840;42.702;23.296;2022-11-24T16:18:51;4.43;;;4.03;;
15476;SDS011;7840;42.702;23.296;2022-11-24T16:21:24;5.83;;;4.37;;
15476;SDS011;7840;42.702;23.296;2022-11-24T16:23:54;7.07;;;5.27;;
15476;SDS011;7840;42.702;23.296;2022-11-24T16:26:24;7.00;;;4.43;;
15476;SDS011;7840;42.702;23.296;2022-11-24T16:29:07;5.93;;;4.97;;
15476;SDS011;7840;42.702;23.296;2022-11-24T16:31:36;4.77;;;4.23;;
15476;SDS011;7840;42.702;23.296;2022-11-24T16:34:19;6.07;;;5.43;;
15476;SDS011;7840;42.702;23.296;2022-11-24T16:36:56;4.57;;;4.10;;
15476;SDS011;7840;42.702;23.296;2022-11-24T16:39:46;7.30;;;5.37;;
15476;SDS011;7840;42.702;23.296;2022-11-24T16:42:24;7.23;;;4.20;;
15476;SDS011;7840;42.702;23.296;2022-11-24T16:44:52;4.83;;;4.30;;
15476;SDS011;7840;42.702;23.296;2022-11-24T16:47:20;4.17;;;3.73;;
15476;SDS011;7840;42.702;23.296;2022-11-24T16:49:48;4.97;;;4.13;;
15476;SDS011;7840;42.702;23.296;2022-11-24T16:52:24;4.37;;;3.87;;
15476;SDS011;7840;42.702;23.296;2022-11-24T16:54:52;4.27;;;3.87;;
15476;SDS011;7840;42.702;23.296;2022-11-24T16:57:34;4.27;;;3.57;;
15476;SDS011;7840;42.702;23.296;2022-11-24T17:00:07;4.00;;;3.40;;
15476;SDS011;7840;42.702;23.296;2022-11-24T17:02:45;6.20;;;4.07;;
15476;SDS011;7840;42.702;23.296;2022-11-24T17:05:41;3.90;;;3.50;;
15476;SDS011;7840;42.702;23.296;2022-11-24T17:08:24;6.37;;;3.57;;
15476;SDS011;7840;42.702;23.296;2022-11-24T17:10:51;4.53;;;3.90;;
15476;SDS011;7840;42.702;23.296;2022-11-24T17:13:19;5.90;;;4.37;;
15476;SDS011;7840;42.702;23.296;2022-11-24T17:15:47;4.17;;;3.77;;
15476;SDS011;7840;42.702;23.296;2022-11-24T17:18:14;7.33;;;4.13;;
15476;SDS011;7840;42.702;23.296;2022-11-24T17:20:43;4.93;;;4.30;;
15476;SDS011;7840;42.702;23.296;2022-11-24T17:23:25;5.07;;;4.57;;
15476;SDS011;7840;42.702;23.296;2022-11-24T17:26:16;5.77;;;4.60;;
15476;SDS011;7840;42.702;23.296;2022-11-24T17:28:45;5.67;;;4.63;;
15476;SDS011;7840;42.702;23.296;2022-11-24T17:31:16;6.80;;;4.97;;
15476;SDS011;7840;42.702;23.296;2022-11-24T17:33:51;7.70;;;5.23;;
15476;SDS011;7840;42.702;23.296;2022-11-24T17:36:33;9.80;;;5.40;;
15476;SDS011;7840;42.702;23.296;2022-11-24T17:39:07;6.77;;;5.80;;
15476;SDS011;7840;42.702;23.296;2022-11-24T17:41:50;6.10;;;5.00;;
15476;SDS011;7840;42.702;23.296;2022-11-24T17:46:54;6.23;;;4.37;;
15476;SDS011;7840;42.702;23.296;2022-11-24T17:49:23;6.40;;;4.30;;
15476;SDS011;7840;42.702;23.296;2022-11-24T17:51:52;4.57;;;3.50;;
15476;SDS011;7840;42.702;23.296;2022-11-24T17:54:59;5.23;;;4.00;;
15476;SDS011;7840;42.702;23.296;2022-11-24T17:57:38;4.70;;;3.80;;
15476;SDS011;7840;42.702;23.296;2022-11-24T18:04:20;4.67;;;4.17;;
15476;SDS011;7840;42.702;23.296;2022-11-24T18:07:33;6.50;;;4.70;;
15476;SDS011;7840;42.702;23.296;2022-11-24T18:10:10;5.30;;;4.70;;
15476;SDS011;7840;42.702;23.296;2022-11-24T18:12:37;4.47;;;4.07;;
15476;SDS011;7840;42.702;23.296;2022-11-24T18:15:05;5.03;;;4.53;;
15476;SDS011;7840;42.702;23.296;2022-11-24T18:17:33;5.70;;;4.63;;
15476;SDS011;7840;42.702;23.296;2022-11-24T18:20:34;5.60;;;4.73;;
15476;SDS011;7840;42.702;23.296;2022-11-24T18:23:01;4.90;;;4.40;;
15476;SDS011;7840;42.702;23.296;2022-11-24T18:25:30;5.07;;;4.20;;
15476;SDS011;7840;42.702;23.296;2022-11-24T18:28:01;5.53;;;4.67;;
15476;SDS011;7840;42.702;23.296;2022-11-24T18:30:31;5.03;;;4.53;;
15476;SDS011;7840;42.702;23.296;2022-11-24T18:32:58;4.87;;;4.00;;
15476;SDS011;7840;42.702;23.296;2022-11-24T18:35:53;5.90;;;3.90;;
15476;SDS011;7840;42.702;23.296;2022-11-24T18:40:50;5.13;;;3.50;;
15476;SDS011;7840;42.702;23.296;2022-11-24T18:43:19;4.03;;;3.63;;
15476;SDS011;7840;42.702;23.296;2022-11-24T18:45:47;4.97;;;4.03;;
15476;SDS011;7840;42.702;23.296;2022-11-24T18:48:15;4.37;;;3.97;;
15476;SDS011;7840;42.702;23.296;2022-11-24T18:50:42;4.27;;;3.87;;
15476;SDS011;7840;42.702;23.296;2022-11-24T18:53:14;3.97;;;3.67;;
15476;SDS011;7840;42.702;23.296;2022-11-24T18:55:59;3.97;;;3.57;;
15476;SDS011;7840;42.702;23.296;2022-11-24T18:58:28;4.53;;;3.93;;
15476;SDS011;7840;42.702;23.296;2022-11-24T19:01:08;6.97;;;4.33;;
15476;SDS011;7840;42.702;23.296;2022-11-24T19:03:38;3.73;;;3.43;;
15476;SDS011;7840;42.702;23.296;2022-11-24T19:06:21;4.80;;;4.30;;
15476;SDS011;7840;42.702;23.296;2022-11-24T19:09:05;5.27;;;4.77;;
15476;SDS011;7840;42.702;23.296;2022-11-24T19:11:34;4.77;;;4.30;;
15476;SDS011;7840;42.702;23.296;2022-11-24T19:14:04;4.73;;;4.33;;
15476;SDS011;7840;42.702;23.296;2022-11-24T19:16:47;5.60;;;5.00;;
15476;SDS011;7840;42.702;23.296;2022-11-24T19:19:20;5.93;;;4.60;;
15476;SDS011;7840;42.702;23.296;2022-11-24T19:22:03;5.83;;;5.33;;
15476;SDS011;7840;42.702;23.296;2022-11-24T19:24:49;8.77;;;6.83;;
15476;SDS011;7840;42.702;23.296;2022-11-24T19:27:17;6.43;;;5.33;;
15476;SDS011;7840;42.702;23.296;2022-11-24T19:29:46;6.70;;;5.13;;
15476;SDS011;7840;42.702;23.296;2022-11-24T19:32:14;7.63;;;5.17;;
15476;SDS011;7840;42.702;23.296;2022-11-24T19:34:43;5.13;;;4.53;;
15476;SDS011;7840;42.702;23.296;2022-11-24T19:37:12;4.70;;;4.30;;
15476;SDS011;7840;42.702;23.296;2022-11-24T19:39:47;3.63;;;3.20;;
15476;SDS011;7840;42.702;23.296;2022-11-24T19:42:15;5.13;;;4.57;;
15476;SDS011;7840;42.702;23.296;2022-11-24T19:44:43;4.53;;;3.57;;
15476;SDS011;7840;42.702;23.296;2022-11-24T19:47:11;4.53;;;4.03;;
15476;SDS011;7840;42.702;23.296;2022-11-24T19:55:28;4.87;;;3.33;;
15476;SDS011;7840;42.702;23.296;2022-11-24T19:58:00;5.40;;;3.73;;
15476;SDS011;7840;42.702;23.296;2022-11-24T20:00:30;3.70;;;3.37;;
15476;SDS011;7840;42.702;23.296;2022-11-24T20:03:13;5.20;;;3.90;;
15476;SDS011;7840;42.702;23.296;2022-11-24T20:06:01;4.63;;;3.97;;
15476;SDS011;7840;42.702;23.296;2022-11-24T20:11:04;4.20;;;3.80;;
15476;SDS011;7840;42.702;23.296;2022-11-24T20:13:33;4.23;;;3.80;;
15476;SDS011;7840;42.702;23.296;2022-11-24T20:16:30;4.83;;;3.53;;
15476;SDS011;7840;42.702;23.296;2022-11-24T20:19:00;4.40;;;3.30;;
15476;SDS011;7840;42.702;23.296;2022-11-24T20:21:30;4.03;;;3.63;;
15476;SDS011;7840;42.702;23.296;2022-11-24T20:24:02;6.63;;;4.20;;
15476;SDS011;7840;42.702;23.296;2022-11-24T20:26:37;3.60;;;3.30;;
15476;SDS011;7840;42.702;23.296;2022-11-24T20:29:10;4.83;;;3.23;;
15476;SDS011;7840;42.702;23.296;2022-11-24T20:31:45;5.10;;;3.53;;
15476;SDS011;7840;42.702;23.296;2022-11-24T20:34:14;4.03;;;2.97;;
15476;SDS011;7840;42.702;23.296;2022-11-24T20:36:59;4.20;;;3.80;;
15476;SDS011;7840;42.702;23.296;2022-11-24T20:39:37;5.40;;;3.70;;
15476;SDS011;7840;42.702;23.296;2022-11-24T20:42:06;6.90;;;3.73;;
15476;SDS011;7840;42.702;23.296;2022-11-24T20:44:34;3.40;;;3.10;;
15476;SDS011;7840;42.702;23.296;2022-11-24T20:47:02;3.93;;;3.10;;
15476;SDS011;7840;42.702;23.296;2022-11-24T20:49:31;4.27;;;3.37;;
15476;SDS011;7840;42.702;23.296;2022-11-24T20:52:01;4.10;;;3.20;;
15476;SDS011;7840;42.702;23.296;2022-11-24T20:54:29;3.70;;;3.30;;
15476;SDS011;7840;42.702;23.296;2022-11-24T20:56:58;3.90;;;3.50;;
15476;SDS011;7840;42.702;23.296;2022-11-24T20:59:44;5.50;;;3.70;;
15476;SDS011;7840;42.702;23.296;2022-11-24T21:02:13;3.80;;;3.33;;
15476;SDS011;7840;42.702;23.296;2022-11-24T21:04:40;5.57;;;3.50;;
15476;SDS011;7840;42.702;23.296;2022-11-24T21:07:08;3.50;;;3.20;;
15476;SDS011;7840;42.702;23.296;2022-11-24T21:09:37;4.20;;;3.80;;
15476;SDS011;7840;42.702;23.296;2022-11-24T21:12:12;4.47;;;3.50;;
15476;SDS011;7840;42.702;23.296;2022-11-24T21:14:46;4.67;;;3.93;;
15476;SDS011;7840;42.702;23.296;2022-11-24T21:17:14;5.37;;;3.93;;
15476;SDS011;7840;42.702;23.296;2022-11-24T21:19:42;5.53;;;3.97;;
15476;SDS011;7840;42.702;23.296;2022-11-24T21:22:12;3.70;;;3.40;;
15476;SDS011;7840;42.702;23.296;2022-11-24T21:24:40;5.03;;;4.43;;
15476;SDS011;7840;42.702;23.296;2022-11-24T21:27:08;4.10;;;3.80;;
15476;SDS011;7840;42.702;23.296;2022-11-24T21:29:35;4.03;;;3.63;;
15476;SDS011;7840;42.702;23.296;2022-11-24T21:32:10;3.47;;;3.17;;
15476;SDS011;7840;42.702;23.296;2022-11-24T21:34:38;3.17;;;2.70;;
15476;SDS011;7840;42.702;23.296;2022-11-24T21:37:06;4.00;;;3.60;;
15476;SDS011;7840;42.702;23.296;2022-11-24T21:39:58;4.30;;;3.77;;
15476;SDS011;7840;42.702;23.296;2022-11-24T21:42:37;4.90;;;3.63;;
15476;SDS011;7840;42.702;23.296;2022-11-24T21:45:41;4.10;;;3.70;;